Ana Sayfa
METAR-TAF:

METAR-TAF

Havaalanları :

Bağdat Uluslararası Havaalanı

Bağdat, Irak

Enlem: 33-15-45N, Boylam: 44-14-04E, yükseklik: 35 m

Güncel hava durumu gözlemi

Rapor saat 22:00 UTC de 50 dakika önce yapıldı.
Rüzgar kuzeydoğudan 3 kt
Sıcaklık 14°C
Nem 55%
Basınç 1012 hPa
Görüş mesafesi 10 km veya daha fazla
1500 m altında bulut yok ve kümülonimbus yok

METAR: ORBI 202200Z 05003KT CAVOK 14/05 Q1012 NOSIG

Saat: 01:50 (22:50 UTC)

Tahmin

Rapor saat 17:00 UTC de 5 saat ve 50 dakika önce yapıldı.
Ayın 20'si saat 18 UTC'den ayın 21'si saat 18 UTC'ye kadar geçerli Tahmin
Rüzgar kuzeybatıdan 7 kt
Görüş mesafesi: 8000 m
Dönüşüyor
ayın 21'si saat 02 UTC'den ayın 21'si saat 04 UTC'ye kadar
Rüzgar güneydan 10 kt
Görüş mesafesi: 4000 m
3000 ft yükseklikte parçalı bulutlu
yaygın toz

TAF: ORBI 201700Z 2018/2118 32007KT 8000 NSC BECMG 2102/2104 19010KT 4000 DU SCT030

4.000'den fazla havaalanı için hava durumu gözlemleri ve tahminleri (METAR ve TAF raporları).

Kullanılabilir istasyonlar harita üzerinde sarı ve kırmızı noktalarla gösterilir.

İstasyonun adını görmek için fareyi noktanın üzerinde gezdirin.

Sonrasında hava gözlem ve tahminlerini görmek için tıklayın.

Haritayı değiştirmek için: yaklaştırmak için siyah artı işaretli yeşil düğmeye ve uzaklaştırmak için de eksi işaretli düğmeye hızla tıklayın; bitişik haritalar için yeşil okları kullanın.


METAR-TAF: